Time;durP1;ratioP1;P1;durP2;ratioP2;P2;SDS_P1;SDS_P2;PMS_P1;PMS_P2;Temp;Humidity;BMP_temperature;BMP_pressure;BME280_temperature;BME280_humidity;BME280_pressure;Samples;Min_cycle;Max_cycle;Signal;HPM_P1;HPM_P2
2021/04/06 00:01:14;;;;;;;0.80;0.80;;;;;;;10.96;60.52;99574.78;4977126;28;20121;-79
2021/04/06 00:03:41;;;;;;;2.53;0.75;;;;;;;10.96;60.43;99574.78;4977531;28;20540;-79
2021/04/06 00:06:08;;;;;;;0.95;0.75;;;;;;;10.91;60.54;99591.81;4978144;28;20089;-80
2021/04/06 00:08:34;;;;;;;2.78;1.05;;;;;;;10.85;60.01;99582.22;4983557;28;20094;-80
2021/04/06 00:11:03;;;;;;;2.97;0.77;;;;;;;10.75;59.93;99580.91;4981311;28;20426;-80
2021/04/06 00:13:33;;;;;;;0.85;0.60;;;;;;;10.88;59.88;99589.03;4978524;28;20031;-80
2021/04/06 00:16:03;;;;;;;1.40;0.77;;;;;;;10.69;60.39;99578.84;4977745;28;20497;-80
2021/04/06 00:18:32;;;;;;;1.85;1.02;;;;;;;10.72;59.66;99589.22;4978111;28;20027;-80
2021/04/06 00:21:01;;;;;;;0.55;0.55;;;;;;;10.70;59.41;99591.56;4977584;28;20092;-80
2021/04/06 00:23:29;;;;;;;0.85;0.73;;;;;;;10.72;59.65;99597.56;4978129;28;20042;-79
2021/04/06 00:25:56;;;;;;;1.35;0.88;;;;;;;10.80;58.51;99588.13;4975236;28;20035;-80
2021/04/06 00:28:26;;;;;;;2.17;0.93;;;;;;;10.68;58.99;99591.16;4976875;28;20471;-79
2021/04/06 00:30:53;;;;;;;3.80;0.60;;;;;;;10.56;59.11;99578.28;4976420;28;20061;-79
2021/04/06 00:33:33;;;;;;;1.45;0.60;;;;;;;10.59;58.95;99582.28;4976491;28;20493;-79
2021/04/06 00:36:01;;;;;;;0.70;0.70;;;;;;;10.51;59.81;99584.19;4976084;28;20062;-79
2021/04/06 00:38:32;;;;;;;0.90;0.73;;;;;;;10.57;60.07;99587.44;4975860;28;20173;-79
2021/04/06 00:41:02;;;;;;;0.70;0.63;;;;;;;10.41;59.94;99577.28;4975207;28;20106;-79
2021/04/06 00:43:47;;;;;;;1.63;0.80;;;;;;;10.31;60.34;99572.38;4976731;28;20541;-79
2021/04/06 00:46:21;;;;;;;0.77;0.77;;;;;;;10.17;61.00;99566.56;4975043;28;20490;-79
2021/04/06 00:48:48;;;;;;;1.02;0.90;;;;;;;10.18;60.68;99569.00;4975115;28;20034;-79
2021/04/06 00:51:20;;;;;;;0.80;0.80;;;;;;;10.35;60.00;99572.44;4976487;28;20544;-79
2021/04/06 00:53:55;;;;;;;1.52;1.08;;;;;;;10.30;60.03;99568.00;4974614;28;20172;-79
2021/04/06 00:56:35;;;;;;;2.95;0.95;;;;;;;10.28;60.07;99562.03;4975162;28;20031;-80
2021/04/06 00:59:04;;;;;;;1.45;0.85;;;;;;;10.27;60.09;99554.03;4976939;28;20035;-80
2021/04/06 01:01:29;;;;;;;0.85;0.85;;;;;;;10.23;59.94;99562.31;4975546;28;20359;-80
2021/04/06 01:03:59;;;;;;;1.83;0.77;;;;;;;10.09;60.34;99542.66;4975607;28;20037;-80
2021/04/06 01:06:25;;;;;;;0.98;0.93;;;;;;;10.11;60.54;99546.63;4975623;28;20030;-80
2021/04/06 01:08:53;;;;;;;1.40;1.30;;;;;;;10.03;60.19;99541.38;4976229;28;20038;-79
2021/04/06 01:11:22;;;;;;;1.17;0.73;;;;;;;9.94;60.12;99525.75;4975231;28;20363;-79
2021/04/06 01:13:48;;;;;;;4.10;0.90;;;;;;;10.02;60.07;99542.53;4975508;28;20389;-80
2021/04/06 01:16:16;;;;;;;2.13;0.93;;;;;;;10.05;59.80;99533.44;4975187;28;20030;-80
2021/04/06 01:18:41;;;;;;;1.13;0.93;;;;;;;9.95;60.15;99532.91;4976082;28;20035;-80
2021/04/06 01:21:10;;;;;;;2.20;1.10;;;;;;;9.93;60.16;99529.72;4975128;28;20386;-80
2021/04/06 01:23:36;;;;;;;2.25;0.80;;;;;;;9.95;60.43;99516.22;4975120;28;20382;-79
2021/04/06 01:26:03;;;;;;;3.95;0.80;;;;;;;10.12;60.26;99527.97;4974948;28;20099;-80
2021/04/06 01:28:30;;;;;;;0.95;0.82;;;;;;;9.88;60.44;99513.34;4974774;28;20046;-79
2021/04/06 01:30:58;;;;;;;0.80;0.80;;;;;;;10.09;60.73;99520.41;4974454;28;20037;-79
2021/04/06 01:33:24;;;;;;;1.02;0.93;;;;;;;10.15;60.48;99530.00;4974616;28;20371;-79
2021/04/06 01:35:53;;;;;;;0.73;0.70;;;;;;;10.11;60.35;99520.81;4974799;28;20057;-80
2021/04/06 01:38:22;;;;;;;2.03;1.00;;;;;;;10.00;60.21;99508.75;4974197;28;20046;-79
2021/04/06 01:40:48;;;;;;;1.20;0.90;;;;;;;9.98;60.85;99509.94;4974313;28;20031;-79
2021/04/06 01:43:17;;;;;;;1.02;0.93;;;;;;;10.02;61.09;99517.53;4974884;28;20030;-80
2021/04/06 01:45:47;;;;;;;2.13;1.08;;;;;;;10.07;61.38;99508.88;4976508;28;20431;-79
2021/04/06 01:48:17;;;;;;;2.03;0.77;;;;;;;10.07;61.18;99506.09;4974664;28;20039;-80
2021/04/06 01:50:51;;;;;;;1.27;0.93;;;;;;;10.03;61.29;99499.69;4974514;28;20089;-79
2021/04/06 01:53:18;;;;;;;1.30;1.15;;;;;;;10.00;61.04;99511.53;4974503;28;20037;-80
2021/04/06 01:55:51;;;;;;;0.93;0.90;;;;;;;9.98;61.28;99504.38;4974380;28;20035;-80
2021/04/06 01:58:19;;;;;;;0.80;0.80;;;;;;;10.00;60.87;99508.75;4975761;28;20034;-79
2021/04/06 02:01:14;;;;;;;0.90;0.90;;;;;;;9.85;61.42;99486.31;4975688;28;20026;-79
2021/04/06 02:03:39;;;;;;;1.00;0.95;;;;;;;9.88;61.60;99488.34;4975025;28;20503;-80
2021/04/06 02:06:06;;;;;;;1.55;1.10;;;;;;;9.87;61.30;99483.97;4977798;28;20019;-80
2021/04/06 02:08:32;;;;;;;3.58;1.15;;;;;;;9.87;61.76;99483.16;4978454;28;20031;-79
2021/04/06 02:10:58;;;;;;;1.63;1.33;;;;;;;9.89;61.97;99484.38;4979420;28;20027;-79
2021/04/06 02:13:24;;;;;;;2.67;1.17;;;;;;;9.92;61.53;99478.09;4978853;28;20035;-80
2021/04/06 02:15:55;;;;;;;3.85;1.38;;;;;;;9.73;62.39;99472.66;4979060;28;20031;-80
2021/04/06 02:18:26;;;;;;;1.58;0.98;;;;;;;9.77;62.48;99481.84;4979380;28;20066;-80
2021/04/06 02:20:59;;;;;;;2.70;1.25;;;;;;;9.79;62.57;99485.03;4979124;28;20027;-80
2021/04/06 02:23:26;;;;;;;2.93;1.80;;;;;;;9.76;62.73;99457.22;4979607;28;20038;-80
2021/04/06 02:25:56;;;;;;;1.40;0.90;;;;;;;9.85;62.97;99452.97;4979005;28;20270;-79
2021/04/06 02:28:25;;;;;;;1.38;1.08;;;;;;;9.88;62.39;99470.88;4980611;28;20524;-80
2021/04/06 02:31:04;;;;;;;6.03;3.08;;;;;;;9.74;63.52;99473.44;4980657;28;20031;-80
2021/04/06 02:33:35;;;;;;;47.13;27.33;;;;;;;9.65;63.79;99474.53;4980097;28;20023;-80
2021/04/06 02:36:07;;;;;;;23.40;13.38;;;;;;;9.56;63.99;99475.97;4979717;28;20036;-80
2021/04/06 02:38:34;;;;;;;24.60;15.60;;;;;;;9.63;64.54;99474.06;4995437;28;20493;-80
2021/04/06 02:41:05;;;;;;;23.20;16.08;;;;;;;9.54;64.32;99470.78;4978466;28;20117;-80
2021/04/06 02:43:45;;;;;;;17.42;13.60;;;;;;;9.45;64.84;99473.81;4977752;28;20026;-79
2021/04/06 02:46:13;;;;;;;19.88;15.07;;;;;;;9.44;64.64;99469.44;4976710;28;20024;-79
2021/04/06 02:48:39;;;;;;;41.00;31.42;;;;;;;9.36;64.13;99462.16;4995120;28;20033;-79
2021/04/06 02:51:05;;;;;;;40.78;29.42;;;;;;;9.42;63.87;99466.22;4980732;28;20034;-79
2021/04/06 02:53:32;;;;;;;49.35;34.47;;;;;;;9.12;63.61;99423.72;4980847;28;20029;-79
2021/04/06 02:55:58;;;;;;;12.20;9.02;;;;;;;9.31;62.55;99447.78;4980625;28;20111;-79
2021/04/06 02:58:23;;;;;;;12.90;9.45;;;;;;;9.32;62.89;99463.25;4998252;28;20376;-79
2021/04/06 03:00:50;;;;;;;9.38;6.95;;;;;;;9.28;63.43;99454.91;4980340;28;20042;-79
2021/04/06 03:03:28;;;;;;;4.18;2.80;;;;;;;9.39;62.39;99449.53;4980923;28;20037;-79
2021/04/06 03:06:10;;;;;;;2.28;1.95;;;;;;;8.95;63.00;99402.00;4981079;28;20450;-80
2021/04/06 03:08:36;;;;;;;2.13;1.92;;;;;;;9.17;63.17;99442.81;4980084;28;20109;-80
2021/04/06 03:11:04;;;;;;;2.55;1.55;;;;;;;9.25;63.20;99443.72;4998107;28;20065;-79
2021/04/06 03:13:30;;;;;;;3.28;1.60;;;;;;;9.29;63.85;99442.63;4980908;28;20136;-79
2021/04/06 03:15:57;;;;;;;5.53;1.90;;;;;;;9.25;63.78;99436.19;4997407;28;20032;-79
2021/04/06 03:18:37;;;;;;;2.38;1.80;;;;;;;9.23;63.24;99419.13;4980449;28;20030;-79
2021/04/06 03:21:06;;;;;;;2.97;1.50;;;;;;;9.35;62.73;99421.69;4980596;28;20400;-80
2021/04/06 03:23:32;;;;;;;1.95;1.38;;;;;;;9.19;63.14;99396.84;4980728;28;20038;-80
2021/04/06 03:25:59;;;;;;;1.58;0.98;;;;;;;9.33;63.96;99426.81;4998054;28;20113;-80
2021/04/06 03:28:37;;;;;;;3.30;1.85;;;;;;;9.09;63.55;99427.22;4980681;28;20381;-80
2021/04/06 03:31:15;;;;;;;8.63;4.63;;;;;;;8.81;65.01;99414.47;4980302;28;20093;-79
2021/04/06 03:33:46;;;;;;;41.35;23.25;;;;;;;8.73;65.00;99401.63;4997930;28;20385;-80
2021/04/06 03:36:23;;;;;;;31.75;19.45;;;;;;;8.89;64.89;99423.69;4981835;28;20062;-80
2021/04/06 03:38:50;;;;;;;15.30;8.40;;;;;;;8.90;64.64;99420.56;4980351;28;20050;-80
2021/04/06 03:41:18;;;;;;;4.25;2.75;;;;;;;8.85;64.73;99397.88;4980883;28;20018;-80
2021/04/06 03:43:44;;;;;;;4.95;2.38;;;;;;;9.06;64.89;99414.09;4998056;28;20041;-80
2021/04/06 03:46:12;;;;;;;1.50;1.40;;;;;;;9.12;64.42;99407.06;4980641;28;20022;-80
2021/04/06 03:48:39;;;;;;;3.13;1.95;;;;;;;9.10;64.70;99398.28;4964771;28;20041;-79
2021/04/06 03:51:23;;;;;;;2.55;1.70;;;;;;;9.05;64.87;99401.38;4980537;28;20025;-80
2021/04/06 03:53:49;;;;;;;1.73;1.63;;;;;;;9.01;64.93;99389.44;4980098;28;20029;-80
2021/04/06 03:56:14;;;;;;;2.38;1.42;;;;;;;8.87;65.13;99356.69;4997636;28;20034;-80
2021/04/06 03:58:54;;;;;;;1.77;1.45;;;;;;;9.07;64.70;99376.84;4997513;28;20033;-80
2021/04/06 04:01:20;;;;;;;1.88;1.42;;;;;;;9.10;64.60;99376.88;4965055;28;20034;-80
2021/04/06 04:03:45;;;;;;;3.00;1.30;;;;;;;9.16;64.80;99380.13;4980678;28;20371;-80
2021/04/06 04:06:22;;;;;;;1.60;1.38;;;;;;;9.25;64.68;99385.44;4980271;28;20038;-80
2021/04/06 04:08:47;;;;;;;2.17;1.45;;;;;;;9.15;64.68;99348.81;4997600;28;20033;-79
2021/04/06 04:11:13;;;;;;;2.05;1.48;;;;;;;9.22;64.55;99350.13;4978927;28;20026;-79
2021/04/06 04:13:39;;;;;;;1.30;1.13;;;;;;;9.38;64.92;99373.75;4979157;28;20037;-79
2021/04/06 04:16:05;;;;;;;1.70;1.23;;;;;;;9.44;64.57;99361.16;4979286;28;20030;-79
2021/04/06 04:18:30;;;;;;;1.50;1.40;;;;;;;9.45;64.61;99359.97;4979309;28;20100;-79
2021/04/06 04:20:56;;;;;;;2.40;1.42;;;;;;;9.51;65.19;99367.97;4979279;28;20037;-79
2021/04/06 04:23:21;;;;;;;1.55;1.45;;;;;;;9.45;64.69;99345.28;4978760;28;20042;-79
2021/04/06 04:25:47;;;;;;;3.08;1.67;;;;;;;9.61;64.52;99372.88;4996329;28;20085;-80
2021/04/06 04:28:12;;;;;;;1.52;1.42;;;;;;;9.64;64.60;99374.88;4980022;28;20116;-80
2021/04/06 04:30:41;;;;;;;2.20;1.73;;;;;;;9.70;65.16;99371.44;4979057;28;20030;-79
2021/04/06 04:33:10;;;;;;;2.00;1.48;;;;;;;9.79;65.57;99378.66;4996088;28;20114;-80
2021/04/06 04:35:37;;;;;;;2.35;1.50;;;;;;;9.67;65.22;99365.81;4996425;28;20034;-79
2021/04/06 04:38:06;;;;;;;2.17;1.65;;;;;;;9.76;65.54;99366.34;4995772;28;20061;-79
2021/04/06 04:40:32;;;;;;;3.72;1.80;;;;;;;9.71;65.23;99363.88;4978465;28;20060;-79
2021/04/06 04:42:58;;;;;;;3.00;2.40;;;;;;;9.73;65.64;99349.63;4978438;28;20031;-80
2021/04/06 04:45:25;;;;;;;4.05;2.15;;;;;;;9.65;64.68;99334.84;4978820;28;20022;-79
2021/04/06 04:47:51;;;;;;;1.60;1.50;;;;;;;9.83;65.01;99362.84;4978627;28;20058;-79
2021/04/06 04:50:18;;;;;;;3.53;1.45;;;;;;;9.95;64.97;99363.38;4978762;28;20030;-79
2021/04/06 04:52:44;;;;;;;3.70;1.98;;;;;;;9.88;64.67;99363.31;4982278;28;20073;-80
2021/04/06 04:55:12;;;;;;;7.43;2.60;;;;;;;9.88;64.09;99354.97;5000672;28;20042;-79
2021/04/06 04:57:38;;;;;;;3.65;1.80;;;;;;;9.73;64.57;99336.53;4995813;28;20084;-79
2021/04/06 05:00:05;;;;;;;2.50;1.67;;;;;;;9.72;64.02;99346.03;4996245;28;20117;-79
2021/04/06 05:02:31;;;;;;;2.90;1.63;;;;;;;9.80;63.78;99363.59;4978036;28;20052;-79
2021/04/06 05:04:57;;;;;;;2.58;1.58;;;;;;;9.76;64.02;99357.22;4978715;28;20038;-78
2021/04/06 05:07:23;;;;;;;2.33;1.98;;;;;;;9.83;63.37;99352.53;4996098;28;20157;-78
2021/04/06 05:09:49;;;;;;;3.97;1.17;;;;;;;9.82;63.16;99350.94;4977947;28;20026;-78
2021/04/06 05:12:15;;;;;;;2.25;1.02;;;;;;;9.78;63.68;99349.28;4977757;28;20458;-78
2021/04/06 05:14:40;;;;;;;1.40;1.30;;;;;;;9.75;63.33;99350.03;4978103;28;20045;-79
2021/04/06 05:17:06;;;;;;;2.72;1.23;;;;;;;9.71;63.59;99336.13;4977798;28;20026;-78
2021/04/06 05:19:31;;;;;;;2.75;1.17;;;;;;;9.84;63.13;99354.13;4977669;28;20038;-79
2021/04/06 05:22:04;;;;;;;2.17;1.40;;;;;;;9.88;63.07;99343.88;4977971;28;20042;-78
2021/04/06 05:24:30;;;;;;;4.50;1.70;;;;;;;10.08;62.42;99354.81;4995393;28;20040;-79
2021/04/06 05:26:55;;;;;;;4.68;1.77;;;;;;;10.12;62.29;99352.84;4977515;28;20030;-78
2021/04/06 05:29:21;;;;;;;3.55;1.92;;;;;;;10.73;60.10;99343.19;4995365;28;20089;-78
2021/04/06 05:31:46;;;;;;;3.67;1.92;;;;;;;10.68;59.92;99337.97;4977332;28;20046;-79
2021/04/06 05:34:12;;;;;;;2.08;1.85;;;;;;;11.11;59.66;99355.03;4977508;28;20030;-78
2021/04/06 05:36:37;;;;;;;4.45;2.00;;;;;;;11.90;56.61;99340.38;4977612;28;20061;-77
2021/04/06 05:39:06;;;;;;;3.45;1.80;;;;;;;11.92;57.17;99356.72;4977474;28;20515;-78
2021/04/06 05:41:34;;;;;;;3.13;1.63;;;;;;;11.89;57.95;99341.59;4977378;28;20027;-77
2021/04/06 05:44:02;;;;;;;2.97;1.92;;;;;;;11.61;57.54;99342.22;4994471;28;20026;-78
2021/04/06 05:46:34;;;;;;;6.22;2.35;;;;;;;11.62;57.75;99337.44;4979983;28;20038;-83
2021/04/06 05:49:02;;;;;;;2.38;1.90;;;;;;;12.32;56.12;99347.28;4990978;28;20018;-83
2021/04/06 05:51:29;;;;;;;2.50;1.92;;;;;;;12.15;56.37;99334.09;4995148;28;20030;-83
2021/04/06 05:53:55;;;;;;;1.98;1.88;;;;;;;13.16;54.37;99327.41;4998779;28;20457;-84
2021/04/06 05:56:21;;;;;;;7.10;1.90;;;;;;;14.03;51.38;99327.56;4998818;28;20022;-85
2021/04/06 05:58:58;;;;;;;2.42;2.13;;;;;;;14.11;51.58;99326.34;4996025;28;20046;-84
2021/04/06 06:01:28;;;;;;;5.20;2.15;;;;;;;14.08;51.03;99332.75;5012192;28;20105;-84
2021/04/06 06:03:54;;;;;;;2.03;1.92;;;;;;;14.29;50.90;99336.63;4995502;28;20011;-84
2021/04/06 06:06:22;;;;;;;3.45;1.67;;;;;;;13.49;53.43;99326.19;5011954;28;20035;-84
2021/04/06 06:09:03;;;;;;;3.92;2.15;;;;;;;12.89;55.59;99322.25;4994593;28;20049;-84
2021/04/06 06:12:02;;;;;;;4.45;2.03;;;;;;;12.75;55.83;99320.25;5009964;28;20015;-83
2021/04/06 06:14:34;;;;;;;2.28;1.50;;;;;;;12.32;57.61;99322.19;4977521;28;20030;-78
2021/04/06 06:17:24;;;;;;;2.50;1.90;;;;;;;11.92;59.09;99315.69;5011086;28;20022;-81
2021/04/06 06:19:53;;;;;;;4.22;1.70;;;;;;;11.62;60.51;99293.66;4983150;28;20038;-80
2021/04/06 06:22:30;;;;;;;2.28;2.05;;;;;;;11.66;60.17;99315.94;4991050;28;20027;-80
2021/04/06 06:25:09;;;;;;;3.45;2.40;;;;;;;11.67;61.22;99306.44;4994614;28;20093;-82
2021/04/06 06:27:41;;;;;;;9.50;3.55;;;;;;;11.44;61.37;99310.28;5016418;28;20030;-81
2021/04/06 06:30:31;;;;;;;5.90;2.78;;;;;;;11.44;62.13;99318.63;5016646;28;20053;-81
2021/04/06 06:33:22;;;;;;;2.20;2.03;;;;;;;11.37;62.13;99303.88;4999070;28;20034;-82
2021/04/06 06:36:02;;;;;;;7.38;2.47;;;;;;;11.25;62.88;99310.56;5016743;28;20052;-83
2021/04/06 06:38:34;;;;;;;4.85;4.05;;;;;;;11.27;62.61;99299.84;4997621;28;20097;-83
2021/04/06 06:41:17;;;;;;;7.78;3.97;;;;;;;11.20;63.34;99306.16;4998243;28;20062;-82
2021/04/06 06:43:53;;;;;;;3.42;2.55;;;;;;;11.15;63.37;99300.16;5015837;28;20562;-81
2021/04/06 06:46:19;;;;;;;8.40;2.92;;;;;;;11.20;63.89;99289.47;4999155;28;20100;-81
2021/04/06 06:49:01;;;;;;;6.40;2.95;;;;;;;11.19;63.73;99287.88;4996730;28;20049;-81
2021/04/06 06:51:30;;;;;;;5.47;3.03;;;;;;;11.30;64.15;99282.38;5002695;28;20049;-79
2021/04/06 06:53:57;;;;;;;14.57;5.00;;;;;;;11.36;63.94;99275.22;5008953;28;20608;-83
2021/04/06 06:56:39;;;;;;;8.75;4.10;;;;;;;11.30;64.42;99270.44;5015514;28;20033;-82
2021/04/06 06:59:06;;;;;;;7.10;3.78;;;;;;;11.24;64.26;99283.94;5014571;28;20045;-83
2021/04/06 07:01:34;;;;;;;5.28;3.30;;;;;;;11.35;65.83;99281.19;4997068;28;20030;-82
2021/04/06 07:04:12;;;;;;;6.05;3.92;;;;;;;11.39;65.95;99285.56;4997101;28;20026;-82
2021/04/06 07:06:44;;;;;;;4.13;3.40;;;;;;;11.50;66.27;99280.88;4997221;28;20030;-81
2021/04/06 07:09:31;;;;;;;6.13;4.13;;;;;;;11.70;65.76;99283.34;4995556;28;20033;-82
2021/04/06 07:12:03;;;;;;;5.45;3.58;;;;;;;12.03;65.16;99285.06;4997111;28;20030;-83
2021/04/06 07:14:30;;;;;;;5.47;3.45;;;;;;;12.82;63.40;99281.16;5000390;28;20030;-84
2021/04/06 07:16:57;;;;;;;6.60;4.18;;;;;;;14.32;59.84;99282.63;5021581;28;20037;-84
2021/04/06 07:19:23;;;;;;;9.60;5.57;;;;;;;15.31;56.61;99283.03;5005210;28;20017;-84
2021/04/06 07:21:54;;;;;;;7.05;4.82;;;;;;;15.68;55.33;99271.00;5004218;23;20051;-82
2021/04/06 07:24:33;;;;;;;8.65;5.57;;;;;;;15.86;51.19;99229.50;4975895;29;20054;-83
2021/04/06 07:27:21;;;;;;;4.32;3.80;;;;;;;15.79;53.23;99279.28;4977728;28;20075;-82
2021/04/06 07:29:49;;;;;;;7.80;3.45;;;;;;;15.03;54.15;99240.09;4976819;28;20019;-83
2021/04/06 07:32:15;;;;;;;7.47;3.40;;;;;;;14.52;55.25;99238.16;4976850;29;20031;-82
2021/04/06 07:34:44;;;;;;;4.45;2.72;;;;;;;14.76;55.54;99259.56;4978007;28;20051;-83
2021/04/06 07:37:11;;;;;;;4.13;3.08;;;;;;;14.03;56.36;99221.28;4975790;29;20027;-82
2021/04/06 07:39:38;;;;;;;5.35;2.95;;;;;;;14.13;56.70;99240.00;4977028;28;20028;-82
2021/04/06 07:42:07;;;;;;;8.05;3.30;;;;;;;14.82;55.89;99245.91;4975372;29;20035;-83
2021/04/06 07:44:38;;;;;;;5.63;3.63;;;;;;;14.65;57.32;99205.66;4973825;29;20039;-82
2021/04/06 07:47:06;;;;;;;6.43;2.95;;;;;;;14.63;56.04;99270.44;4975884;28;20027;-85
2021/04/06 07:49:37;;;;;;;2.90;1.92;;;;;;;15.08;54.30;99208.81;4972190;29;20043;-82
2021/04/06 07:52:14;;;;;;;4.68;2.53;;;;;;;15.46;53.24;99206.75;4974027;29;20034;-83
2021/04/06 07:54:40;;;;;;;6.05;2.63;;;;;;;15.39;54.87;99262.09;4974884;29;20034;-84
2021/04/06 07:57:08;;;;;;;3.20;2.42;;;;;;;15.01;54.79;99185.69;4974534;29;20038;-82
2021/04/06 07:59:46;;;;;;;5.28;3.10;;;;;;;14.30;56.21;99187.13;4974361;29;20128;-83
2021/04/06 08:02:12;;;;;;;5.15;2.88;;;;;;;14.32;57.85;99251.84;4973649;29;20082;-83
2021/04/06 08:04:38;;;;;;;8.70;3.50;;;;;;;14.07;58.89;99264.03;4975379;29;20042;-83
2021/04/06 08:07:19;;;;;;;5.55;3.28;;;;;;;13.82;60.05;99252.97;4973310;29;20042;-84
2021/04/06 08:09:54;;;;;;;7.75;3.60;;;;;;;13.14;60.19;99187.34;4973892;28;20027;-83
2021/04/06 08:12:27;;;;;;;5.93;4.00;;;;;;;12.85;60.54;99190.25;4973426;29;20031;-83
2021/04/06 08:14:59;;;;;;;9.07;4.40;;;;;;;13.31;60.90;99259.94;4974527;28;20035;-83
2021/04/06 08:17:31;;;;;;;8.75;4.35;;;;;;;13.30;61.34;99258.34;4972781;29;20074;-83
2021/04/06 08:20:05;;;;;;;7.95;3.72;;;;;;;13.04;61.62;99202.94;4973612;29;20031;-83
2021/04/06 08:22:37;;;;;;;4.57;3.50;;;;;;;13.41;61.95;99255.53;4971495;29;20372;-83
2021/04/06 08:25:21;;;;;;;5.00;3.53;;;;;;;13.45;67.02;99247.94;4971552;28;20098;-83
2021/04/06 08:28:02;;;;;;;4.85;2.42;;;;;;;13.57;67.47;99249.47;4973448;28;20039;-84
2021/04/06 08:30:34;;;;;;;8.27;2.30;;;;;;;13.52;67.49;99228.34;4972979;29;20066;-83
2021/04/06 08:33:00;;;;;;;2.63;2.22;;;;;;;13.19;68.07;99186.94;4974194;29;20038;-82
2021/04/06 08:35:53;;;;;;;3.75;2.42;;;;;;;13.79;67.79;99239.00;4973293;28;20099;-83
2021/04/06 08:38:27;;;;;;;2.57;2.37;;;;;;;13.68;68.49;99235.47;4973855;28;20039;-83
2021/04/06 08:40:55;;;;;;;6.68;2.88;;;;;;;13.41;67.72;99171.72;4973616;28;20265;-83
2021/04/06 08:43:26;;;;;;;3.38;2.28;;;;;;;13.76;67.50;99209.88;4972568;28;20095;-83
2021/04/06 08:46:00;;;;;;;5.40;2.55;;;;;;;13.88;67.21;99214.97;4972863;28;20055;-83
2021/04/06 08:51:31;;;;;;;5.47;2.17;;;;;;;13.94;67.03;99203.38;4973981;28;20039;-83
2021/04/06 08:54:03;;;;;;;1.98;1.75;;;;;;;13.94;65.83;99165.00;4972869;28;20470;-83
2021/04/06 08:56:37;;;;;;;4.15;2.60;;;;;;;14.33;64.76;99208.69;4973243;28;20039;-83
2021/04/06 08:59:17;;;;;;;;;;;;;;;14.83;64.10;99231.47;4972033;28;20028;-83
2021/04/06 09:01:57;;;;;;;5.72;3.00;;;;;;;15.46;60.29;99203.16;4970706;28;19915;-84
2021/04/06 09:04:37;;;;;;;5.30;3.08;;;;;;;15.30;55.55;99158.13;4971558;29;20090;-82
2021/04/06 09:07:22;;;;;;;5.20;2.78;;;;;;;17.00;50.83;99198.81;4958588;29;20028;-77
2021/04/06 09:09:52;;;;;;;4.85;1.40;;;;;;;17.54;48.48;99221.03;4955321;29;20024;-77
2021/04/06 09:12:17;;;;;;;5.47;1.80;;;;;;;17.60;48.32;99224.13;4955770;29;20031;-74
2021/04/06 09:14:44;;;;;;;5.68;2.58;;;;;;;17.22;49.81;99221.69;4955733;29;20037;-77
2021/04/06 09:17:13;;;;;;;4.72;2.20;;;;;;;16.58;50.68;99218.00;4955643;29;20031;-75
2021/04/06 09:19:40;;;;;;;7.68;2.22;;;;;;;16.07;52.12;99205.94;4956257;29;20114;-78
2021/04/06 09:22:11;;;;;;;4.95;2.20;;;;;;;16.38;51.63;99225.53;4955886;29;20130;-79
2021/04/06 09:24:46;;;;;;;6.55;2.30;;;;;;;16.31;52.05;99211.63;4972705;29;20051;-83
2021/04/06 09:27:14;;;;;;;3.78;1.88;;;;;;;16.12;52.81;99225.13;4973729;29;20039;-81
2021/04/06 09:29:46;;;;;;;7.47;1.90;;;;;;;15.82;53.84;99208.31;4975622;28;20030;-82
2021/04/06 09:32:21;;;;;;;6.68;2.28;;;;;;;16.34;53.18;99207.94;4972030;29;20037;-81
2021/04/06 09:34:51;;;;;;;6.00;2.72;;;;;;;16.42;52.97;99201.00;4974009;29;20027;-81
2021/04/06 09:37:19;;;;;;;9.18;2.50;;;;;;;15.98;53.87;99200.09;4973167;28;20035;-81
2021/04/06 09:39:47;;;;;;;4.80;1.85;;;;;;;16.38;53.37;99195.44;4971660;29;20050;-82
2021/04/06 09:42:13;;;;;;;3.65;2.40;;;;;;;16.63;52.33;99186.59;4970305;28;20047;-80
2021/04/06 09:44:43;;;;;;;4.72;2.03;;;;;;;16.77;51.62;99185.56;4954876;29;20116;-82
2021/04/06 09:47:12;;;;;;;7.80;2.00;;;;;;;17.03;50.11;99181.06;4970985;29;20070;-83
2021/04/06 09:49:44;;;;;;;4.57;1.85;;;;;;;17.76;47.85;99182.03;4966710;29;20034;-81
2021/04/06 09:52:22;;;;;;;3.72;1.98;;;;;;;17.16;47.58;99187.66;4969219;29;20062;-80
2021/04/06 09:54:51;;;;;;;4.63;2.08;;;;;;;17.10;47.25;99189.41;4959942;29;20027;-81
2021/04/06 09:57:17;;;;;;;4.40;2.22;;;;;;;17.41;46.15;99194.78;4957884;28;20038;-82
2021/04/06 09:59:45;;;;;;;3.00;1.48;;;;;;;17.50;44.88;99187.34;4960168;28;20478;-83
2021/04/06 10:02:19;;;;;;;5.78;2.22;;;;;;;17.40;45.47;99184.78;4958736;28;20074;-83
2021/04/06 10:04:50;;;;;;;2.53;1.70;;;;;;;17.32;46.14;99191.78;4958015;29;20042;-81
2021/04/06 10:07:22;;;;;;;4.20;1.58;;;;;;;17.04;46.11;99193.91;4959381;28;20035;-81
2021/04/06 10:09:48;;;;;;;4.15;1.95;;;;;;;16.83;47.03;99197.94;4955748;28;20079;-79
2021/04/06 10:12:16;;;;;;;6.30;2.67;;;;;;;16.69;48.11;99196.13;4959155;28;20035;-81
2021/04/06 10:14:43;;;;;;;3.65;1.83;;;;;;;16.39;50.33;99191.41;4956168;29;20027;-81
2021/04/06 10:17:13;;;;;;;6.05;2.67;;;;;;;16.45;50.82;99181.28;4957531;29;20055;-80
2021/04/06 10:19:44;;;;;;;3.53;1.80;;;;;;;16.30;52.72;99173.53;4957295;29;20422;-82
2021/04/06 10:22:12;;;;;;;4.97;1.92;;;;;;;16.45;53.85;99188.91;4958118;29;20553;-82
2021/04/06 10:24:43;;;;;;;6.78;2.33;;;;;;;16.27;54.53;99143.50;4957553;29;20467;-80
2021/04/06 10:27:20;;;;;;;8.57;2.08;;;;;;;17.12;52.97;99170.06;4955895;29;20031;-78
2021/04/06 10:29:55;;;;;;;9.25;2.17;;;;;;;16.70;53.95;99147.16;4952670;29;20036;-78
2021/04/06 10:32:29;;;;;;;7.10;2.40;;;;;;;17.66;52.24;99166.13;4954860;29;20033;-79
2021/04/06 10:35:08;;;;;;;2.35;1.65;;;;;;;17.52;50.90;99167.22;4955162;29;20031;-78
2021/04/06 10:37:49;;;;;;;2.65;1.70;;;;;;;17.22;49.65;99155.00;4957977;28;20031;-83
2021/04/06 10:40:26;;;;;;;3.17;2.13;;;;;;;16.78;50.36;99153.47;4958871;28;20111;-79
2021/04/06 10:42:56;;;;;;;3.83;2.35;;;;;;;16.62;50.52;99151.34;4955886;28;20043;-81
2021/04/06 10:45:23;;;;;;;3.15;2.00;;;;;;;16.67;51.39;99119.94;4955399;29;20063;-78
2021/04/06 10:48:12;;;;;;;4.47;1.70;;;;;;;16.73;51.41;99151.16;4954470;29;20038;-76
2021/04/06 10:50:54;;;;;;;7.40;1.63;;;;;;;16.76;51.84;99127.81;4965171;28;20438;-81
2021/04/06 10:53:23;;;;;;;4.03;2.15;;;;;;;16.98;52.16;99142.25;4954671;29;20061;-79
2021/04/06 10:55:56;;;;;;;3.25;1.77;;;;;;;16.90;50.47;99135.97;4955350;29;20118;-81
2021/04/06 10:58:31;;;;;;;3.67;1.95;;;;;;;16.52;51.32;99103.78;4957703;28;20031;-80
2021/04/06 11:01:04;;;;;;;1.98;1.60;;;;;;;17.24;49.78;99135.69;4956854;29;20035;-80
2021/04/06 11:03:43;;;;;;;5.20;1.77;;;;;;;16.72;50.52;99130.72;4956808;28;20039;-78
2021/04/06 11:06:18;;;;;;;4.03;2.00;;;;;;;17.72;48.38;99134.25;4955088;28;20043;-77
2021/04/06 11:08:48;;;;;;;2.67;1.38;;;;;;;17.83;46.04;99142.47;4955365;28;20034;-77
2021/04/06 11:11:22;;;;;;;3.53;1.80;;;;;;;17.21;47.04;99108.47;4958116;28;20102;-77
2021/04/06 11:13:49;;;;;;;6.93;1.70;;;;;;;17.49;47.70;99123.13;4957572;28;20090;-77
2021/04/06 11:16:15;;;;;;;4.18;2.40;;;;;;;17.78;46.72;99134.53;4958824;28;20062;-77
2021/04/06 11:18:41;;;;;;;5.63;2.50;;;;;;;17.29;46.69;99121.13;4958879;28;20035;-77
2021/04/06 11:21:08;;;;;;;12.35;2.20;;;;;;;17.45;46.90;99116.78;4957570;29;20146;-77
2021/04/06 11:23:34;;;;;;;3.95;2.38;;;;;;;17.51;47.18;99112.22;4957781;29;20118;-77
2021/04/06 11:26:02;;;;;;;5.30;2.08;;;;;;;17.58;47.50;99109.25;4957270;29;20035;-77
2021/04/06 11:28:28;;;;;;;3.75;2.45;;;;;;;17.54;47.38;99116.97;4958556;28;20059;-78
2021/04/06 11:30:54;;;;;;;2.95;2.13;;;;;;;17.41;48.22;99105.59;4957776;29;20028;-76
2021/04/06 11:33:19;;;;;;;5.53;2.38;;;;;;;17.76;47.91;99109.66;4957480;29;20370;-77
2021/04/06 11:35:46;;;;;;;4.55;2.20;;;;;;;17.68;48.98;99099.75;4957409;29;20394;-77
2021/04/06 11:38:13;;;;;;;6.20;2.25;;;;;;;17.55;48.80;99110.13;4957052;29;20063;-77
2021/04/06 11:40:38;;;;;;;4.18;1.90;;;;;;;17.42;49.62;99095.16;4958389;28;20507;-77
2021/04/06 11:43:04;;;;;;;7.38;2.47;;;;;;;17.44;49.70;99098.31;4957104;29;20110;-77
2021/04/06 11:45:30;;;;;;;3.92;1.98;;;;;;;18.31;46.71;99093.81;4957478;29;20135;-77
2021/04/06 11:47:55;;;;;;;6.57;2.15;;;;;;;18.54;45.94;99094.88;4957031;29;20042;-77
2021/04/06 11:50:22;;;;;;;4.22;2.00;;;;;;;18.13;45.14;99085.06;4956893;29;20039;-77
2021/04/06 11:52:49;;;;;;;3.88;1.27;;;;;;;18.35;44.35;99085.28;4957139;29;20135;-77
2021/04/06 11:55:18;;;;;;;10.48;2.17;;;;;;;18.76;43.55;99084.63;4957394;29;20133;-76